createdAt,value
2023-01-13T00:04:34.604Z,99214.25
2023-01-13T00:09:36.155Z,99203.84
2023-01-13T00:14:37.606Z,99202.44
2023-01-13T00:19:39.052Z,99192.03
2023-01-13T00:24:40.536Z,99210.38
2023-01-13T00:29:42.013Z,99196.41
2023-01-13T00:34:43.493Z,99201.63
2023-01-13T00:39:45.703Z,99210.59
2023-01-13T00:44:47.156Z,99202.97
2023-01-13T00:49:48.913Z,99205.69
2023-01-13T00:54:50.364Z,99193.69
2023-01-13T00:59:51.803Z,99198.06
2023-01-13T01:04:53.286Z,99198.59
2023-01-13T01:09:54.725Z,99193.66
2023-01-13T01:14:56.197Z,99202.97
2023-01-13T01:19:57.653Z,99192.56
2023-01-13T01:24:59.639Z,99195.88
2023-01-13T01:30:01.118Z,99186.84
2023-01-13T01:35:02.619Z,99179.47
2023-01-13T01:40:07.043Z,99181.06
2023-01-13T01:45:27.381Z,99184.63
2023-01-13T01:50:28.952Z,99174.22
2023-01-13T01:55:30.815Z,99180.00
2023-01-13T02:00:32.407Z,99174.53
2023-01-13T02:05:34.418Z,99170.13
2023-01-13T02:10:36.273Z,99157.28
2023-01-13T02:15:49.822Z,99152.66
2023-01-13T02:21:05.799Z,99151.00
2023-01-13T02:26:45.760Z,99151.00
2023-01-13T02:31:47.811Z,99140.88
2023-01-13T02:36:57.268Z,99145.53
2023-01-13T02:42:29.932Z,99132.69
2023-01-13T02:47:32.559Z,99130.50
2023-01-13T02:52:39.329Z,99123.38
2023-01-13T02:57:41.170Z,99116.53
2023-01-13T03:02:42.673Z,99126.13
2023-01-13T03:08:23.149Z,99127.22
2023-01-13T03:13:47.060Z,99131.56
2023-01-13T03:19:03.452Z,99133.47
2023-01-13T03:24:13.821Z,99139.22
2023-01-13T03:29:29.236Z,99123.13
2023-01-13T03:34:54.298Z,99124.75
2023-01-13T03:39:59.361Z,99116.53
2023-01-13T03:45:02.817Z,99110.53
2023-01-13T03:50:06.721Z,99120.38
2023-01-13T03:55:26.637Z,99121.19
2023-01-13T04:00:31.386Z,99112.19
2023-01-13T04:05:33.889Z,99125.03
2023-01-13T04:10:39.422Z,99124.19
2023-01-13T04:15:42.469Z,99119.81
2023-01-13T04:20:45.144Z,99115.44
2023-01-13T04:25:46.652Z,99115.44
2023-01-13T04:30:48.091Z,99118.19
2023-01-13T04:35:49.534Z,99119.81
2023-01-13T04:40:50.911Z,99107.78
2023-01-13T04:45:52.318Z,99124.19
2023-01-13T04:50:53.745Z,99117.34
2023-01-13T04:55:55.253Z,99106.41
2023-01-13T05:00:56.672Z,99112.13
2023-01-13T05:05:58.124Z,99102.03
2023-01-13T05:11:22.570Z,99100.13
2023-01-13T05:16:53.154Z,99095.75
2023-01-13T05:22:13.058Z,99107.19
2023-01-13T05:27:14.443Z,99105.31
2023-01-13T05:32:15.831Z,99099.59
2023-01-13T05:37:17.391Z,99102.88
2023-01-13T05:42:37.386Z,99101.78
2023-01-13T05:47:38.832Z,99105.31
2023-01-13T05:52:40.211Z,99109.69
2023-01-13T05:57:41.766Z,99111.06
2023-01-13T06:02:43.180Z,99087.59
2023-01-13T06:07:44.573Z,99100.97
2023-01-13T06:12:45.957Z,99101.78
2023-01-13T06:17:47.471Z,99099.06
2023-01-13T06:22:49.847Z,99099.06
2023-01-13T06:27:51.331Z,99105.13
2023-01-13T06:32:53.787Z,99100.78
2023-01-13T06:37:55.715Z,99101.28
2023-01-13T06:43:16.702Z,99107.81
2023-01-13T06:48:19.777Z,99099.09
2023-01-13T06:53:21.159Z,99099.09
2023-01-13T06:58:22.870Z,99122.94
2023-01-13T07:03:24.239Z,99118.84
2023-01-13T07:08:25.727Z,99130.31
2023-01-13T07:13:45.926Z,99141.03
2023-01-13T07:18:47.381Z,99138.88
2023-01-13T07:23:48.814Z,99150.41
2023-01-13T07:28:50.236Z,99144.94
2023-01-13T07:33:51.655Z,99147.97
2023-01-13T07:38:54.808Z,99146.06
2023-01-13T07:43:56.396Z,99128.28
2023-01-13T07:48:57.785Z,99130.72
2023-01-13T07:53:59.155Z,99146.03
2023-01-13T07:59:00.623Z,99139.47
2023-01-13T08:04:01.995Z,99147.41
2023-01-13T08:09:03.796Z,99135.91
2023-01-13T08:14:05.256Z,99135.91
2023-01-13T08:19:06.670Z,99136.75
2023-01-13T08:24:09.591Z,99134.81
2023-01-13T08:29:13.687Z,99138.97
2023-01-13T08:34:16.171Z,99131.03
2023-01-13T08:39:18.558Z,99127.50
2023-01-13T08:44:19.943Z,99124.19
2023-01-13T08:49:24.390Z,99135.41
2023-01-13T08:54:25.788Z,99135.19
2023-01-13T08:59:27.203Z,99128.84
2023-01-13T09:04:31.705Z,99135.13
2023-01-13T09:09:33.148Z,99150.19
2023-01-13T09:14:35.507Z,99161.66
2023-01-13T09:19:36.990Z,99178.91
2023-01-13T09:24:38.374Z,99210.34
2023-01-13T09:29:39.761Z,99271.09
2023-01-13T09:34:59.299Z,99288.03
2023-01-13T09:40:01.118Z,99293.50
2023-01-13T09:45:16.675Z,99289.94
2023-01-13T09:50:19.967Z,99277.31
2023-01-13T09:55:24.247Z,99283.63
2023-01-13T10:00:28.325Z,99289.94
2023-01-13T10:05:50.096Z,99300.03
2023-01-13T10:10:55.242Z,99298.94
2023-01-13T10:16:28.026Z,99293.47
2023-01-13T10:21:48.116Z,99292.66
2023-01-13T10:27:28.511Z,99272.13
2023-01-13T10:32:29.913Z,99277.63
2023-01-13T10:37:31.529Z,99252.69
2023-01-13T10:42:32.960Z,99242.88
2023-01-13T10:47:36.454Z,99246.16
2023-01-13T10:52:42.687Z,99229.97
2023-01-13T10:57:44.072Z,99229.97
2023-01-13T11:02:45.527Z,99223.72
2023-01-13T11:07:52.342Z,99217.13
2023-01-13T11:13:16.750Z,99243.66
2023-01-13T11:18:51.564Z,99251.06
2023-01-13T11:24:06.699Z,99258.16
2023-01-13T11:29:31.325Z,99253.81
2023-01-13T11:34:36.975Z,99255.44
2023-01-13T11:40:01.310Z,99257.34
2023-01-13T11:45:23.425Z,99267.19
2023-01-13T11:50:35.037Z,99269.09
2023-01-13T11:55:57.609Z,99268.59
2023-01-13T12:01:17.361Z,99263.94
2023-01-13T12:06:24.342Z,99197.22
2023-01-13T12:11:33.709Z,99251.69
2023-01-13T12:16:35.126Z,99244.84
2023-01-13T12:21:38.769Z,99244.31
2023-01-13T12:26:55.057Z,99256.09
2023-01-13T12:31:56.511Z,99252.81
2023-01-13T12:37:20.635Z,99249.25
2023-01-13T12:42:45.472Z,99232.25
2023-01-13T12:47:46.845Z,99260.16
2023-01-13T12:52:54.970Z,99259.31
2023-01-13T12:58:02.433Z,99259.31
2023-01-13T13:03:13.640Z,99244.50
2023-01-13T13:08:16.637Z,99247.22
2023-01-13T13:13:39.724Z,99255.66
2023-01-13T13:18:41.095Z,99258.41
2023-01-13T13:23:56.915Z,99252.38
2023-01-13T13:29:20.548Z,99266.06
2023-01-13T13:34:48.234Z,99267.94
2023-01-13T13:40:08.172Z,99265.50
2023-01-13T13:45:40.118Z,99268.78
2023-01-13T13:50:47.488Z,99275.63
2023-01-13T13:55:56.030Z,99274.53
2023-01-13T14:00:57.609Z,99274.00
2023-01-13T14:06:04.032Z,99261.44
2023-01-13T14:11:25.335Z,99250.81
2023-01-13T14:16:26.710Z,99262.03
2023-01-13T14:21:28.627Z,99268.84
2023-01-13T14:26:31.153Z,99291.00
2023-01-13T14:31:32.527Z,99285.75
2023-01-13T14:36:33.743Z,99295.84
2023-01-13T14:41:45.258Z,99304.84
2023-01-13T14:46:46.640Z,99322.09
2023-01-13T14:51:48.055Z,99335.19
2023-01-13T14:56:50.744Z,99337.06
2023-01-13T15:01:54.180Z,99346.63
2023-01-13T15:06:56.233Z,99339.00
2023-01-13T15:11:58.727Z,99334.63
2023-01-13T15:17:00.167Z,99396.13
2023-01-13T15:22:01.532Z,99397.47
2023-01-13T15:27:02.915Z,99406.47
2023-01-13T15:32:04.488Z,99396.66
2023-01-13T15:37:08.154Z,99404.03
2023-01-13T15:42:30.708Z,99403.19
2023-01-13T15:47:32.095Z,99398.25
2023-01-13T15:52:33.549Z,99398.81
2023-01-13T15:57:36.199Z,99405.91
2023-01-13T16:02:37.592Z,99424.75
2023-01-13T16:07:39.053Z,99417.66
2023-01-13T16:12:41.069Z,99407.28
2023-01-13T16:17:43.373Z,99398.50
2023-01-13T16:22:47.545Z,99396.63
2023-01-13T16:27:49.060Z,99411.09
2023-01-13T16:32:50.490Z,99403.97
2023-01-13T16:37:52.207Z,99410.84
2023-01-13T16:42:53.640Z,99411.09
2023-01-13T16:47:55.016Z,99420.94
2023-01-13T16:52:56.390Z,99420.94
2023-01-13T16:57:57.830Z,99411.66
2023-01-13T17:03:01.058Z,99429.16
2023-01-13T17:08:02.555Z,99445.00
2023-01-13T17:13:14.799Z,99462.75
2023-01-13T17:18:17.560Z,99468.44
2023-01-13T17:23:18.949Z,99484.28
2023-01-13T17:28:20.330Z,99482.59
2023-01-13T17:33:21.768Z,99470.28
2023-01-13T17:38:23.186Z,99465.91
2023-01-13T17:43:25.182Z,99488.88
2023-01-13T17:48:26.575Z,99498.69
2023-01-13T17:53:29.222Z,99499.53
2023-01-13T17:58:31.474Z,99515.94
2023-01-13T18:03:32.849Z,99518.09
2023-01-13T18:08:34.245Z,99531.78
2023-01-13T18:13:35.906Z,99542.69
2023-01-13T18:18:37.905Z,99555.22
2023-01-13T18:23:57.823Z,99562.34
2023-01-13T18:28:59.222Z,99559.88
2023-01-13T18:34:00.594Z,99560.19
2023-01-13T18:39:03.313Z,99560.69
2023-01-13T18:44:04.754Z,99559.88
2023-01-13T18:49:06.128Z,99560.44
2023-01-13T18:54:07.531Z,99554.97
2023-01-13T18:59:08.910Z,99555.53
2023-01-13T19:04:15.389Z,99552.25
2023-01-13T19:09:24.512Z,99556.88
2023-01-13T19:14:34.844Z,99568.09
2023-01-13T19:19:43.820Z,99560.41
2023-01-13T19:24:45.748Z,99567.00
2023-01-13T19:29:50.728Z,99570.56
2023-01-13T19:34:54.895Z,99590.75
2023-01-13T19:39:58.010Z,99597.06
2023-01-13T19:45:17.653Z,99609.38
2023-01-13T19:50:19.443Z,99607.66
2023-01-13T19:55:20.868Z,99616.19
2023-01-13T20:00:22.963Z,99616.19
2023-01-13T20:05:26.074Z,99610.91
2023-01-13T20:10:30.107Z,99632.25
2023-01-13T20:15:31.524Z,99635.25
2023-01-13T20:20:32.929Z,99657.97
2023-01-13T20:25:34.347Z,99662.59
2023-01-13T20:30:35.873Z,99672.97
2023-01-13T20:35:37.241Z,99687.44
2023-01-13T20:40:38.619Z,99684.47
2023-01-13T20:45:40.377Z,99688.25
2023-01-13T20:50:42.043Z,99683.41
2023-01-13T20:55:43.426Z,99673.25
2023-01-13T21:00:44.833Z,99686.94
2023-01-13T21:05:46.221Z,99701.69
2023-01-13T21:10:47.595Z,99697.28
2023-01-13T21:15:49.046Z,99691.00
2023-01-13T21:20:51.501Z,99710.97
2023-01-13T21:25:52.877Z,99717.81
2023-01-13T21:30:54.343Z,99726.53
2023-01-13T21:35:55.837Z,99721.91
2023-01-13T21:41:01.999Z,99739.63
2023-01-13T21:46:35.320Z,99749.00
2023-01-13T21:51:36.692Z,99756.84
2023-01-13T21:56:38.063Z,99769.44
2023-01-13T22:02:13.239Z,99762.91
2023-01-13T22:07:04.418Z,99771.09
2023-01-13T22:12:05.794Z,99774.09
2023-01-13T22:17:07.522Z,99775.72
2023-01-13T22:22:14.033Z,99785.81
2023-01-13T22:27:19.925Z,99781.78
2023-01-13T22:32:21.303Z,99791.28
2023-01-13T22:37:22.683Z,99795.97
2023-01-13T22:42:24.057Z,99800.31
2023-01-13T22:47:25.482Z,99808.53
2023-01-13T22:52:28.372Z,99802.22
2023-01-13T22:57:35.941Z,99803.88
2023-01-13T23:02:38.139Z,99806.28
2023-01-13T23:07:39.605Z,99806.88
2023-01-13T23:12:41.022Z,99822.53
2023-01-13T23:17:43.258Z,99821.34
2023-01-13T23:22:44.834Z,99828.16
2023-01-13T23:27:46.247Z,99833.63
2023-01-13T23:32:47.612Z,99826.81
2023-01-13T23:37:49.030Z,99835.03
2023-01-13T23:42:50.467Z,99838.03
2023-01-13T23:47:52.168Z,99836.97
2023-01-13T23:52:53.764Z,99843.72
2023-01-13T23:57:55.150Z,99839.44
